Terminal Aerodrome Forecast
Issued by NWS Wilmington, NC

Current Version | Previous Version | Text Only | Print | Product List | Glossary On
Versions: 1 2 3 4 5 6 7 8 9 10 11 12 13
093
FTUS42 KILM 132320
TAFFLO
TAF
KFLO 132320Z 1400/1424 22008KT P6SM SKC
     FM140200 23007KT P6SM SCT250 WS010/23035KT
     FM140500 23010G18KT P6SM FEW130 SCT250 WS010/25040KT
     FM141500 26008KT P6SM FEW150 SCT220=

USA.gov is the U.S. government's official web portal to all federal, state and local government web resources and services.